Terminal Aerodrome Forecast
Issued by NWS Sterling, VA

Current Version | Previous Version | Text Only | Print | Product List | Glossary Off
Versions: 1 2 3 4 5 6 7 8 9 10 11 12 13 14 15 16 17 18 19 20 21 22 23 24 25 26

000
FTUS41 KLWX 011100
TAFIAD
TAF
KIAD 011137Z 0112/0218 VRB03KT 3SM -DZ BR BKN008
     FM011500 06004KT P6SM SCT008 BKN020
     FM011700 05004KT P6SM BKN045
     FM012000 VRB03KT P6SM SCT150
     FM020600 VRB03KT P6SM SCT020 BKN090=

USA.gov is the U.S. government's official web portal to all federal, state and local government web resources and services.